Time;durP1;ratioP1;P1;durP2;ratioP2;P2;SDS_P1;SDS_P2;PMS_P1;PMS_P2;Temp;Humidity;BMP_temperature;BMP_pressure;BME280_temperature;BME280_humidity;BME280_pressure;Samples;Min_cycle;Max_cycle;Signal;HPM_P1;HPM_P2
2024/04/18 00:01:30;;;;;;;17.10;15.60;;;3.50;99.90;;;;;;5435806;26;20221;-40
2024/04/18 00:03:55;;;;;;;16.67;15.17;;;3.40;99.90;;;;;;5435456;26;20565;-38
2024/04/18 00:06:21;;;;;;;16.50;15.17;;;3.40;99.90;;;;;;5436042;26;20285;-38
2024/04/18 00:08:47;;;;;;;16.77;15.40;;;3.40;99.90;;;;;;5434745;26;20234;-38
2024/04/18 00:11:12;;;;;;;17.30;15.70;;;3.30;99.90;;;;;;5434881;26;20950;-40
2024/04/18 00:13:38;;;;;;;17.03;15.40;;;3.30;99.90;;;;;;5435873;26;21112;-52
2024/04/18 00:16:04;;;;;;;17.80;16.30;;;3.20;99.90;;;;;;5435368;26;20355;-52
2024/04/18 00:18:30;;;;;;;16.97;15.27;;;3.20;99.90;;;;;;5435427;26;20747;-48
2024/04/18 00:20:55;;;;;;;17.87;16.33;;;3.20;99.90;;;;;;5435554;26;20548;-48
2024/04/18 00:23:21;;;;;;;17.07;15.77;;;3.20;99.90;;;;;;5435592;26;20344;-49
2024/04/18 00:25:46;;;;;;;17.30;15.90;;;3.20;99.90;;;;;;5435268;26;20268;-52
2024/04/18 00:28:12;;;;;;;17.20;15.90;;;3.20;99.90;;;;;;5435241;26;20242;-52
2024/04/18 00:30:39;;;;;;;16.90;15.50;;;3.10;99.90;;;;;;5435965;26;20614;-46
2024/04/18 00:33:04;;;;;;;17.80;16.15;;;3.10;99.90;;;;;;5433355;26;20992;-50
2024/04/18 00:35:30;;;;;;;18.63;17.07;;;3.10;99.90;;;;;;5435649;26;20340;-53
2024/04/18 00:37:55;;;;;;;17.57;16.07;;;3.10;99.90;;;;;;5435180;26;20703;-50
2024/04/18 00:40:21;;;;;;;17.20;15.60;;;3.10;99.90;;;;;;5434805;26;20221;-52
2024/04/18 00:42:47;;;;;;;16.20;14.80;;;3.00;99.90;;;;;;5435212;26;20226;-41
2024/04/18 00:45:12;;;;;;;17.17;15.67;;;2.90;99.90;;;;;;5435081;26;20569;-42
2024/04/18 00:47:39;;;;;;;17.10;15.50;;;2.90;99.90;;;;;;5435263;26;20288;-52
2024/04/18 00:50:07;;;;;;;16.35;14.98;;;2.90;99.90;;;;;;5435012;26;20238;-48
2024/04/18 00:52:32;;;;;;;16.58;15.15;;;2.90;99.90;;;;;;5403386;26;20245;-51
2024/04/18 00:54:58;;;;;;;16.40;14.97;;;2.90;99.90;;;;;;5434899;26;20245;-50
2024/04/18 00:57:24;;;;;;;17.27;15.70;;;2.80;99.90;;;;;;5403282;26;20229;-52
2024/04/18 00:59:51;;;;;;;17.70;16.10;;;2.80;99.90;;;;;;5434941;26;20407;-53
2024/04/18 01:02:18;;;;;;;17.13;15.73;;;2.80;99.90;;;;;;5431569;26;20242;-49
2024/04/18 01:04:44;;;;;;;15.80;14.70;;;2.80;99.90;;;;;;5435076;26;20226;-48
2024/04/18 01:07:10;;;;;;;15.43;14.03;;;2.70;99.90;;;;;;5432299;26;20287;-52
2024/04/18 01:09:35;;;;;;;16.10;14.70;;;2.70;99.90;;;;;;5436807;26;20459;-49
2024/04/18 01:12:01;;;;;;;17.03;15.43;;;2.60;99.90;;;;;;5438158;26;20234;-52
2024/04/18 01:14:27;;;;;;;16.45;15.15;;;2.60;99.90;;;;;;5438496;26;20238;-47
2024/04/18 01:16:53;;;;;;;16.40;15.13;;;2.60;99.90;;;;;;5438159;26;20345;-48
2024/04/18 01:19:19;;;;;;;17.00;15.50;;;2.60;99.90;;;;;;5437955;26;21039;-48
2024/04/18 01:21:46;;;;;;;16.13;14.73;;;2.70;99.90;;;;;;5438576;26;20270;-52
2024/04/18 01:24:15;;;;;;;16.27;14.98;;;2.60;99.90;;;;;;5438358;26;20272;-51
2024/04/18 01:26:41;;;;;;;15.68;14.50;;;2.60;99.90;;;;;;5435281;26;20653;-51
2024/04/18 01:29:07;;;;;;;16.35;14.75;;;2.60;99.90;;;;;;5436708;26;20284;-53
2024/04/18 01:31:32;;;;;;;15.77;14.43;;;2.50;99.90;;;;;;5406761;26;21243;-51
2024/04/18 01:33:58;;;;;;;16.37;14.93;;;2.50;99.90;;;;;;5437745;26;20280;-39
2024/04/18 01:36:24;;;;;;;17.00;15.40;;;2.50;99.90;;;;;;5437960;26;20237;-40
2024/04/18 01:38:51;;;;;;;17.67;15.95;;;2.60;99.90;;;;;;5437833;26;20331;-40
2024/04/18 01:41:18;;;;;;;17.35;15.85;;;2.50;99.90;;;;;;5437479;26;20291;-38
2024/04/18 01:43:44;;;;;;;16.52;15.02;;;2.50;99.90;;;;;;5437457;26;20339;-42
2024/04/18 01:46:10;;;;;;;16.53;15.20;;;2.40;99.90;;;;;;5437517;26;20783;-39
2024/04/18 01:48:35;;;;;;;17.20;15.77;;;2.40;99.90;;;;;;5437530;26;20455;-39
2024/04/18 01:51:04;;;;;;;16.13;14.83;;;2.30;99.90;;;;;;5438001;26;20230;-39
2024/04/18 01:53:30;;;;;;;15.90;14.70;;;2.30;99.90;;;;;;5437482;26;20289;-40
2024/04/18 01:55:56;;;;;;;17.13;15.63;;;2.30;99.90;;;;;;5436254;26;20229;-38
2024/04/18 01:58:21;;;;;;;16.83;15.20;;;2.20;99.90;;;;;;5437683;26;20504;-39
2024/04/18 02:00:47;;;;;;;16.50;15.10;;;2.20;99.90;;;;;;5437385;26;20504;-41
2024/04/18 02:03:13;;;;;;;16.30;15.00;;;2.20;99.90;;;;;;5437462;26;20289;-39
2024/04/18 02:05:39;;;;;;;16.27;14.93;;;2.20;99.90;;;;;;5437471;26;20264;-38
2024/04/18 02:08:05;;;;;;;16.80;15.40;;;2.10;99.90;;;;;;5404326;26;21045;-39
2024/04/18 02:10:30;;;;;;;16.30;15.00;;;2.10;99.90;;;;;;5438049;26;20482;-44
2024/04/18 02:12:56;;;;;;;16.73;15.23;;;2.10;99.90;;;;;;5436478;26;20222;-43
2024/04/18 02:15:25;;;;;;;16.67;15.30;;;2.00;99.90;;;;;;5436872;26;20276;-42
2024/04/18 02:17:51;;;;;;;17.38;15.57;;;2.00;99.90;;;;;;5437402;26;20522;-41
2024/04/18 02:20:18;;;;;;;17.45;15.75;;;1.90;99.90;;;;;;5403849;26;20229;-41
2024/04/18 02:22:53;;;;;;;15.95;14.63;;;1.90;99.90;;;;;;5437611;26;20229;-46
2024/04/18 02:25:18;;;;;;;16.13;14.82;;;1.90;99.90;;;;;;5436365;26;20233;-38
2024/04/18 02:27:44;;;;;;;16.30;14.97;;;2.00;99.90;;;;;;5436842;26;20276;-48
2024/04/18 02:30:10;;;;;;;15.90;14.60;;;2.00;99.90;;;;;;5437145;26;20234;-54
2024/04/18 02:32:37;;;;;;;15.57;14.18;;;2.00;99.90;;;;;;5436989;26;20256;-49
2024/04/18 02:35:04;;;;;;;17.23;15.23;;;2.00;99.90;;;;;;5437397;26;20293;-49
2024/04/18 02:37:29;;;;;;;16.60;15.20;;;2.00;99.90;;;;;;5436894;26;20221;-51
2024/04/18 02:39:55;;;;;;;16.17;14.97;;;1.90;99.90;;;;;;5436435;26;21017;-49
2024/04/18 02:42:21;;;;;;;18.33;16.30;;;1.90;99.90;;;;;;5436527;26;20222;-48
2024/04/18 02:44:46;;;;;;;16.57;15.27;;;1.90;99.90;;;;;;5437314;26;20440;-50
2024/04/18 02:47:15;;;;;;;18.37;16.57;;;1.90;99.90;;;;;;5437092;26;20297;-51
2024/04/18 02:49:40;;;;;;;15.82;14.52;;;1.90;99.90;;;;;;5437323;26;20210;-52
2024/04/18 02:52:06;;;;;;;16.27;15.07;;;1.80;99.90;;;;;;5438654;26;20289;-53
2024/04/18 02:54:31;;;;;;;17.33;15.93;;;1.80;99.90;;;;;;5436654;26;20878;-48
2024/04/18 02:56:57;;;;;;;18.20;16.40;;;1.80;99.90;;;;;;5438857;26;20226;-45
2024/04/18 02:59:23;;;;;;;17.23;15.73;;;1.80;99.90;;;;;;5438627;26;20289;-52
2024/04/18 03:01:52;;;;;;;15.83;14.63;;;1.70;99.90;;;;;;5439245;26;20878;-51
2024/04/18 03:04:17;;;;;;;16.33;15.00;;;1.70;99.90;;;;;;5438725;26;20846;-50
2024/04/18 03:06:47;;;;;;;17.50;15.90;;;1.70;99.90;;;;;;5438355;26;20230;-48
2024/04/18 03:09:14;;;;;;;16.52;15.00;;;1.70;99.90;;;;;;5438455;26;20293;-50
2024/04/18 03:11:40;;;;;;;16.67;15.25;;;1.60;99.90;;;;;;5438752;26;20317;-46
2024/04/18 03:14:05;;;;;;;17.40;15.80;;;1.70;99.90;;;;;;5437382;26;20238;-51
2024/04/18 03:16:32;;;;;;;17.20;15.70;;;1.70;99.90;;;;;;5438387;26;20796;-46
2024/04/18 03:18:59;;;;;;;17.38;15.88;;;1.70;99.90;;;;;;5438399;26;20885;-51
2024/04/18 03:21:25;;;;;;;17.85;16.45;;;1.70;99.90;;;;;;5438026;26;20304;-47
2024/04/18 03:23:50;;;;;;;17.33;15.83;;;1.70;99.90;;;;;;5437725;26;20347;-49
2024/04/18 03:26:16;;;;;;;17.10;15.70;;;1.70;99.90;;;;;;5437519;26;20346;-53
2024/04/18 03:28:42;;;;;;;15.00;13.70;;;1.70;99.90;;;;;;5437855;26;20747;-53
2024/04/18 03:31:07;;;;;;;17.67;16.13;;;1.70;99.90;;;;;;5437222;26;20226;-51
2024/04/18 03:33:33;;;;;;;17.10;15.60;;;1.70;99.90;;;;;;5437806;26;20581;-52
2024/04/18 03:36:02;;;;;;;15.97;14.60;;;1.70;99.90;;;;;;5437955;26;20230;-53
2024/04/18 03:38:28;;;;;;;18.05;16.15;;;1.70;99.90;;;;;;5437702;26;20451;-52
2024/04/18 03:40:57;;;;;;;16.95;15.50;;;1.70;99.90;;;;;;5437935;26;20234;-49
2024/04/18 03:43:22;;;;;;;16.65;14.90;;;1.70;99.90;;;;;;5436049;26;20359;-53
2024/04/18 03:45:59;;;;;;;17.33;15.73;;;1.70;99.90;;;;;;5437084;26;20241;-51
2024/04/18 03:48:24;;;;;;;19.05;15.80;;;1.60;99.90;;;;;;5438045;26;20455;-49
2024/04/18 03:50:50;;;;;;;16.40;14.93;;;1.60;99.90;;;;;;5436452;26;20301;-52
2024/04/18 03:53:16;;;;;;;17.07;15.37;;;1.60;99.90;;;;;;5433974;26;20237;-52
2024/04/18 03:55:41;;;;;;;16.80;15.30;;;1.60;99.90;;;;;;5434317;26;20610;-46
2024/04/18 03:58:07;;;;;;;18.03;14.77;;;1.60;99.90;;;;;;5434289;26;20222;-51
2024/04/18 04:00:33;;;;;;;17.27;15.57;;;1.60;99.90;;;;;;5434669;26;20230;-53
2024/04/18 04:02:58;;;;;;;17.93;16.03;;;1.50;99.90;;;;;;5434863;26;20523;-51
2024/04/18 04:05:24;;;;;;;16.77;15.33;;;1.50;99.90;;;;;;5435626;26;20226;-46
2024/04/18 04:07:50;;;;;;;18.00;16.30;;;1.50;99.90;;;;;;5435854;26;20338;-51
2024/04/18 04:10:15;;;;;;;18.73;16.93;;;1.50;99.90;;;;;;5435591;26;20230;-53
2024/04/18 04:12:41;;;;;;;18.20;16.60;;;1.50;99.90;;;;;;5434931;26;20268;-48
2024/04/18 04:15:07;;;;;;;19.73;17.63;;;1.60;99.90;;;;;;5434285;26;20218;-51
2024/04/18 04:17:32;;;;;;;19.95;16.23;;;1.50;99.90;;;;;;5433130;26;20276;-49
2024/04/18 04:19:58;;;;;;;23.50;17.00;;;1.60;99.90;;;;;;5435055;26;20284;-41
2024/04/18 04:22:24;;;;;;;19.90;16.63;;;1.70;99.90;;;;;;5435392;26;20334;-40
2024/04/18 04:24:49;;;;;;;19.37;17.37;;;1.70;99.90;;;;;;5434621;26;20268;-42
2024/04/18 04:27:15;;;;;;;19.10;17.20;;;1.80;99.90;;;;;;5435243;26;20276;-38
2024/04/18 04:29:41;;;;;;;23.63;18.57;;;1.80;99.90;;;;;;5435719;26;20711;-40
2024/04/18 04:32:19;;;;;;;19.33;17.33;;;1.90;99.90;;;;;;5435213;26;20222;-38
2024/04/18 04:34:45;;;;;;;19.33;17.50;;;1.90;99.90;;;;;;5435086;26;20762;-41
2024/04/18 04:37:11;;;;;;;25.60;18.60;;;2.00;99.90;;;;;;5435518;26;20264;-38
2024/04/18 04:39:36;;;;;;;32.27;18.50;;;2.00;99.90;;;;;;5410742;26;20214;-43
2024/04/18 04:42:02;;;;;;;19.33;17.30;;;2.00;99.90;;;;;;5433989;26;20619;-42
2024/04/18 04:44:27;;;;;;;23.03;17.20;;;2.00;99.90;;;;;;5433733;26;20229;-38
2024/04/18 04:46:53;;;;;;;19.63;16.53;;;2.00;99.90;;;;;;5435152;26;20615;-43
2024/04/18 04:49:19;;;;;;;22.67;20.37;;;2.00;99.90;;;;;;5435397;26;20230;-38
2024/04/18 04:51:44;;;;;;;19.77;17.77;;;2.00;99.90;;;;;;5433994;26;21151;-41
2024/04/18 04:54:10;;;;;;;20.37;17.73;;;2.00;99.90;;;;;;5435038;26;20590;-39
2024/04/18 04:56:36;;;;;;;18.67;16.67;;;2.00;99.90;;;;;;5434890;26;20265;-38
2024/04/18 04:59:01;;;;;;;30.40;18.03;;;2.10;99.90;;;;;;5435285;26;20288;-44
2024/04/18 05:01:27;;;;;;;36.63;18.03;;;2.10;99.90;;;;;;5432575;26;20359;-38
2024/04/18 05:03:52;;;;;;;21.53;19.47;;;2.20;99.90;;;;;;5429577;26;20297;-39
2024/04/18 05:06:18;;;;;;;23.40;18.57;;;2.30;99.90;;;;;;5431644;26;20241;-38
2024/04/18 05:08:47;;;;;;;27.20;19.03;;;2.40;99.90;;;;;;5434398;26;20237;-42
2024/04/18 05:11:12;;;;;;;30.45;19.30;;;2.50;99.90;;;;;;5434625;26;20323;-43
2024/04/18 05:13:39;;;;;;;25.37;19.80;;;2.50;99.90;;;;;;5434515;26;20708;-38
2024/04/18 05:16:05;;;;;;;29.73;19.60;;;2.50;99.90;;;;;;5401867;26;20234;-40
2024/04/18 05:18:32;;;;;;;22.48;19.20;;;2.50;99.90;;;;;;5434513;26;20238;-40
2024/04/18 05:20:57;;;;;;;38.05;19.13;;;2.60;99.90;;;;;;5434576;26;20233;-41
2024/04/18 05:23:23;;;;;;;30.20;21.80;;;2.60;99.90;;;;;;5434592;26;20272;-42
2024/04/18 05:25:49;;;;;;;35.53;21.70;;;2.70;99.90;;;;;;5434643;26;20305;-40
2024/04/18 05:28:20;;;;;;;28.17;22.50;;;2.80;99.90;;;;;;5434247;26;20452;-46
2024/04/18 05:31:03;;;;;;;24.98;21.45;;;3.00;99.90;;;;;;5401736;26;20234;-40
2024/04/18 05:33:29;;;;;;;25.45;19.65;;;3.10;99.90;;;;;;5433593;26;20272;-38
2024/04/18 05:35:55;;;;;;;25.05;21.10;;;3.20;99.90;;;;;;5434173;26;20325;-42
2024/04/18 05:38:21;;;;;;;24.35;20.75;;;3.30;99.90;;;;;;5433434;26;20700;-41
2024/04/18 05:40:47;;;;;;;25.30;20.13;;;3.40;99.90;;;;;;5434099;26;20284;-39
2024/04/18 05:43:13;;;;;;;26.67;19.93;;;3.50;99.90;;;;;;5434405;26;20237;-39
2024/04/18 05:45:38;;;;;;;27.80;19.83;;;3.60;99.90;;;;;;5433634;26;20508;-39
2024/04/18 05:48:04;;;;;;;23.10;20.70;;;3.80;99.90;;;;;;5433383;26;20222;-40
2024/04/18 05:50:29;;;;;;;22.07;19.73;;;3.90;99.90;;;;;;5432857;26;20874;-43
2024/04/18 05:52:55;;;;;;;24.80;20.27;;;4.10;99.90;;;;;;5433967;26;20237;-42
2024/04/18 05:55:21;;;;;;;22.70;20.30;;;4.20;99.90;;;;;;5435864;26;20688;-44
2024/04/18 05:57:46;;;;;;;23.37;21.00;;;4.30;99.90;;;;;;5437439;26;20300;-45
2024/04/18 06:00:13;;;;;;;30.30;22.40;;;4.50;99.90;;;;;;5436164;26;20241;-39
2024/04/18 06:02:38;;;;;;;26.70;22.02;;;4.60;99.90;;;;;;5436065;26;20693;-41
2024/04/18 06:05:04;;;;;;;26.40;22.17;;;4.70;99.90;;;;;;5437629;26;20222;-42
2024/04/18 06:07:30;;;;;;;27.10;24.17;;;4.90;99.90;;;;;;5405858;26;20234;-41
2024/04/18 06:09:56;;;;;;;25.33;22.70;;;5.10;99.90;;;;;;5437729;26;20230;-39
2024/04/18 06:12:21;;;;;;;26.37;23.50;;;5.30;99.90;;;;;;5437769;26;20297;-40
2024/04/18 06:14:48;;;;;;;26.40;23.63;;;5.50;99.90;;;;;;5435080;26;20272;-41
2024/04/18 06:17:14;;;;;;;26.52;23.83;;;5.60;99.90;;;;;;5436418;26;20292;-41
2024/04/18 06:19:40;;;;;;;24.90;22.40;;;5.80;99.90;;;;;;5435341;26;21147;-42
2024/04/18 06:22:05;;;;;;;24.20;21.80;;;6.00;99.90;;;;;;5435769;26;20222;-40
2024/04/18 06:24:32;;;;;;;25.10;22.50;;;6.20;99.90;;;;;;5437066;26;20222;-40
2024/04/18 06:26:58;;;;;;;25.60;23.10;;;6.30;99.90;;;;;;5436919;26;20647;-41
2024/04/18 06:29:24;;;;;;;23.20;20.90;;;6.60;99.90;;;;;;5436610;26;20450;-44
2024/04/18 06:31:49;;;;;;;24.37;22.13;;;6.70;99.90;;;;;;5435106;26;20297;-39
2024/04/18 06:34:15;;;;;;;24.20;21.83;;;6.80;99.90;;;;;;5437386;26;20242;-40
2024/04/18 06:36:40;;;;;;;24.30;21.90;;;7.00;91.40;;;;;;5437015;26;20699;-46
2024/04/18 06:39:07;;;;;;;21.90;19.90;;;7.10;51.00;;;;;;5437098;26;20285;-42
2024/04/18 06:41:36;;;;;;;20.43;18.63;;;7.20;36.80;;;;;;5437039;26;20230;-44
2024/04/18 06:44:02;;;;;;;19.50;17.80;;;7.40;25.80;;;;;;5437125;26;20448;-41
2024/04/18 06:46:27;;;;;;;18.90;16.90;;;7.40;8.30;;;;;;5436627;26;20508;-42
2024/04/18 06:48:53;;;;;;;17.10;15.70;;;7.40;1.00;;;;;;5436883;26;20744;-53
2024/04/18 06:51:19;;;;;;;17.70;16.30;;;7.40;1.00;;;;;;5436653;26;20276;-52
2024/04/18 06:53:45;;;;;;;18.17;16.47;;;7.40;1.00;;;;;;5436337;26;20545;-53
2024/04/18 06:56:10;;;;;;;19.27;17.77;;;7.50;1.00;;;;;;5436962;26;20276;-51
2024/04/18 06:58:36;;;;;;;17.20;15.70;;;7.60;1.00;;;;;;5436892;26;20265;-51
2024/04/18 07:01:02;;;;;;;17.27;15.87;;;7.60;1.00;;;;;;5434699;26;21367;-50
2024/04/18 07:03:28;;;;;;;18.17;16.57;;;7.60;1.00;;;;;;5436144;26;20532;-53
2024/04/18 07:05:53;;;;;;;18.40;16.90;;;7.60;1.00;;;;;;5435633;26;20280;-51
2024/04/18 07:08:19;;;;;;;18.53;16.73;;;7.80;1.00;;;;;;5436583;26;20229;-41
2024/04/18 07:10:44;;;;;;;18.10;16.70;;;7.80;1.00;;;;;;5436144;26;20280;-43
2024/04/18 07:13:10;;;;;;;18.80;17.20;;;7.80;1.00;;;;;;5436604;26;20233;-42
2024/04/18 07:15:36;;;;;;;17.70;16.30;;;7.80;1.00;;;;;;5436306;26;20272;-40
2024/04/18 07:18:01;;;;;;;17.10;15.80;;;7.80;1.00;;;;;;5436303;26;20237;-43
2024/04/18 07:20:27;;;;;;;18.57;16.97;;;7.80;1.00;;;;;;5435136;26;20226;-42
2024/04/18 07:22:53;;;;;;;16.67;15.27;;;8.00;1.00;;;;;;5436415;26;20310;-45
2024/04/18 07:25:19;;;;;;;18.40;16.87;;;8.00;1.00;;;;;;5436420;26;20856;-39
2024/04/18 07:27:45;;;;;;;17.70;16.27;;;8.10;1.00;;;;;;5436261;26;20570;-41
2024/04/18 07:30:10;;;;;;;17.80;16.30;;;8.10;1.00;;;;;;5405126;26;20264;-39
2024/04/18 07:32:36;;;;;;;17.57;16.17;;;8.20;1.00;;;;;;5435109;26;20238;-40
2024/04/18 07:35:02;;;;;;;17.37;15.93;;;8.30;1.00;;;;;;5436721;26;21180;-39
2024/04/18 07:37:27;;;;;;;16.00;14.67;;;8.30;1.00;;;;;;5435828;26;20273;-43
2024/04/18 07:39:54;;;;;;;17.00;15.50;;;8.30;1.00;;;;;;5436685;26;20221;-42
2024/04/18 07:42:20;;;;;;;17.47;15.97;;;8.40;1.00;;;;;;5419986;26;20278;-42
2024/04/18 07:44:45;;;;;;;17.37;15.97;;;8.60;1.00;;;;;;5433741;26;20511;-42
2024/04/18 07:47:11;;;;;;;17.20;15.67;;;8.70;1.00;;;;;;5434571;26;20297;-40
2024/04/18 07:49:37;;;;;;;17.17;15.90;;;8.70;1.00;;;;;;5434706;26;21082;-44
2024/04/18 07:52:03;;;;;;;15.77;14.63;;;8.90;1.00;;;;;;5432794;26;20459;-39
2024/04/18 07:54:29;;;;;;;16.83;15.57;;;8.90;1.00;;;;;;5433125;26;20613;-39
2024/04/18 07:56:55;;;;;;;17.50;16.20;;;8.90;1.00;;;;;;5402475;26;21029;-45
2024/04/18 07:59:20;;;;;;;17.50;16.13;;;9.10;1.00;;;;;;5434550;26;20222;-40
2024/04/18 08:01:46;;;;;;;19.50;17.97;;;9.10;1.00;;;;;;5434902;26;21476;-42
2024/04/18 08:04:11;;;;;;;18.20;16.60;;;9.20;99.90;;;;;;5435525;26;20230;-39
2024/04/18 08:06:37;;;;;;;19.40;17.70;;;9.20;99.90;;;;;;5435567;26;20242;-42
2024/04/18 08:09:04;;;;;;;18.33;16.83;;;9.10;99.90;;;;;;5434814;26;20238;-45
2024/04/18 08:11:30;;;;;;;17.48;15.88;;;9.00;99.90;;;;;;5432438;26;20401;-45
2024/04/18 08:13:56;;;;;;;18.60;17.00;;;9.10;99.90;;;;;;5403167;26;20242;-40
2024/04/18 08:16:21;;;;;;;18.00;16.50;;;9.30;99.90;;;;;;5434341;26;20821;-40
2024/04/18 08:18:47;;;;;;;17.87;16.50;;;9.40;99.90;;;;;;5434096;26;20342;-42
2024/04/18 08:21:13;;;;;;;17.70;16.40;;;9.50;52.20;;;;;;5434567;26;20413;-39
2024/04/18 08:23:39;;;;;;;18.60;17.10;;;9.80;99.90;;;;;;5434860;26;20234;-41
2024/04/18 08:26:05;;;;;;;15.90;14.70;;;9.80;38.40;;;;;;5433302;26;20582;-46
2024/04/18 08:28:30;;;;;;;16.40;15.13;;;9.80;1.00;;;;;;5434189;26;20554;-42
2024/04/18 08:30:56;;;;;;;15.20;14.10;;;9.80;1.00;;;;;;5432968;26;20577;-40
2024/04/18 08:33:22;;;;;;;15.47;14.37;;;9.90;1.00;;;;;;5434066;26;20325;-40
2024/04/18 08:35:47;;;;;;;15.90;14.60;;;10.00;1.00;;;;;;5434564;26;20268;-39
2024/04/18 08:38:13;;;;;;;14.57;13.60;;;10.10;1.00;;;;;;5433997;26;20230;-41
2024/04/18 08:40:44;;;;;;;14.13;13.23;;;10.30;1.00;;;;;;5432792;26;20850;-39
2024/04/18 08:43:11;;;;;;;15.97;14.83;;;10.40;1.00;;;;;;5433710;26;20539;-41
2024/04/18 08:45:40;;;;;;;16.63;15.43;;;10.70;1.00;;;;;;5434387;26;20507;-43
2024/04/18 08:48:06;;;;;;;17.63;16.17;;;10.80;1.00;;;;;;5432283;26;20570;-39
2024/04/18 08:50:33;;;;;;;15.47;14.47;;;10.80;1.00;;;;;;5433511;26;20805;-40
2024/04/18 08:53:01;;;;;;;15.40;14.40;;;10.50;1.00;;;;;;5434984;26;20490;-40
2024/04/18 08:55:29;;;;;;;13.90;13.00;;;10.40;1.00;;;;;;5434697;26;20800;-40
2024/04/18 08:58:05;;;;;;;15.27;14.27;;;10.30;1.00;;;;;;5435705;26;20585;-42
2024/04/18 09:00:32;;;;;;;15.30;14.20;;;10.70;1.00;;;;;;5435701;26;20455;-42
2024/04/18 09:02:59;;;;;;;14.27;13.27;;;11.40;1.00;;;;;;5435298;26;20665;-43
2024/04/18 09:05:25;;;;;;;14.33;13.43;;;12.40;1.00;;;;;;5436255;26;21098;-41
2024/04/18 09:07:51;;;;;;;13.40;12.50;;;13.40;99.90;;;;;;5435548;26;20467;-42
2024/04/18 09:10:21;;;;;;;12.57;11.90;;;13.80;99.90;;;;;;5402720;26;20273;-44
2024/04/18 09:12:50;;;;;;;12.27;11.67;;;14.50;99.90;;;;;;5435043;26;20583;-42
2024/04/18 09:15:16;;;;;;;12.30;11.70;;;15.10;99.90;;;;;;5435036;26;21499;-42
2024/04/18 09:17:42;;;;;;;11.87;11.27;;;15.10;99.90;;;;;;5435802;26;20460;-41
2024/04/18 09:20:09;;;;;;;13.40;12.70;;;14.70;99.90;;;;;;5402061;26;20268;-47
2024/04/18 09:22:35;;;;;;;14.73;13.90;;;14.70;99.90;;;;;;5434855;26;20268;-48
2024/04/18 09:25:00;;;;;;;12.97;12.33;;;14.70;99.90;;;;;;5432922;26;20953;-50
2024/04/18 09:27:26;;;;;;;12.53;11.93;;;14.60;99.90;;;;;;5432822;26;21020;-47
2024/04/18 09:29:51;;;;;;;12.37;11.60;;;13.70;99.90;;;;;;5436924;26;20744;-47
2024/04/18 09:32:17;;;;;;;12.53;11.87;;;13.00;99.90;;;;;;5438634;26;20342;-48
2024/04/18 09:34:47;;;;;;;12.90;12.10;;;12.70;99.90;;;;;;5438537;26;20226;-45
2024/04/18 09:37:15;;;;;;;13.03;12.33;;;12.40;99.90;;;;;;5439131;26;20527;-46
2024/04/18 09:39:44;;;;;;;13.10;12.40;;;12.10;99.90;;;;;;5438962;26;20558;-50
2024/04/18 09:42:22;;;;;;;12.07;11.47;;;11.80;99.90;;;;;;5436776;26;20970;-44
2024/04/18 09:44:53;;;;;;;13.10;12.40;;;11.40;99.90;;;;;;5437151;26;20503;-46
2024/04/18 09:47:21;;;;;;;12.50;11.90;;;11.10;99.90;;;;;;5439969;26;20519;-46
2024/04/18 09:49:48;;;;;;;10.70;10.20;;;10.90;99.90;;;;;;5439455;26;20542;-52
2024/04/18 09:52:16;;;;;;;13.40;12.70;;;11.00;99.90;;;;;;5437518;26;20544;-47
2024/04/18 09:54:42;;;;;;;12.63;12.00;;;10.90;99.90;;;;;;5436318;26;20470;-46
2024/04/18 09:57:10;;;;;;;11.97;11.37;;;10.90;99.90;;;;;;5436036;26;20467;-51
2024/04/18 09:59:38;;;;;;;12.33;11.63;;;10.80;99.90;;;;;;5436109;26;20867;-46
2024/04/18 10:02:09;;;;;;;12.77;12.17;;;10.80;99.90;;;;;;5437066;26;20452;-49
2024/04/18 10:04:35;;;;;;;12.03;11.43;;;10.80;99.90;;;;;;5433645;26;20536;-49
2024/04/18 10:07:02;;;;;;;12.17;11.57;;;10.70;99.90;;;;;;5435144;26;20467;-46
2024/04/18 10:09:28;;;;;;;12.53;11.83;;;10.90;99.90;;;;;;5435913;26;20272;-48
2024/04/18 10:11:54;;;;;;;12.43;11.83;;;10.80;99.90;;;;;;5437098;26;20503;-44
2024/04/18 10:14:21;;;;;;;11.83;11.30;;;10.90;99.90;;;;;;5436316;26;20455;-45
2024/04/18 10:16:48;;;;;;;11.23;10.73;;;10.90;99.90;;;;;;5436510;26;20229;-45
2024/04/18 10:19:21;;;;;;;11.50;10.90;;;10.80;99.90;;;;;;5436501;26;20525;-46
2024/04/18 10:21:57;;;;;;;11.63;11.00;;;10.60;99.90;;;;;;5436453;26;20483;-47
2024/04/18 10:24:35;;;;;;;10.40;9.90;;;10.50;99.90;;;;;;5436019;26;20523;-46
2024/04/18 10:27:06;;;;;;;10.10;9.60;;;10.50;99.90;;;;;;5437043;26;20829;-52
2024/04/18 10:29:33;;;;;;;10.23;9.83;;;10.70;99.90;;;;;;5436300;26;21021;-49
2024/04/18 10:31:58;;;;;;;12.50;11.80;;;10.70;99.90;;;;;;5436616;26;20791;-49
2024/04/18 10:34:26;;;;;;;10.50;10.10;;;10.70;99.90;;;;;;5434616;26;20519;-50
2024/04/18 10:36:53;;;;;;;10.90;10.47;;;10.60;99.90;;;;;;5435834;26;20303;-47
2024/04/18 10:39:36;;;;;;;10.70;10.20;;;10.50;99.90;;;;;;5435680;26;21051;-48
2024/04/18 10:42:11;;;;;;;10.73;10.23;;;10.40;99.90;;;;;;5435553;26;20459;-50
2024/04/18 10:44:37;;;;;;;9.97;9.57;;;10.40;99.90;;;;;;5435987;26;20523;-44
2024/04/18 10:47:04;;;;;;;9.93;9.53;;;10.50;99.90;;;;;;5437116;26;20460;-45
2024/04/18 10:49:29;;;;;;;9.80;9.40;;;10.90;99.90;;;;;;5435702;26;20358;-45
2024/04/18 10:51:58;;;;;;;10.23;9.63;;;11.40;99.90;;;;;;5435862;26;20620;-50
2024/04/18 10:54:23;;;;;;;11.10;10.60;;;11.90;99.90;;;;;;5436215;26;20222;-49
2024/04/18 10:56:50;;;;;;;10.30;9.90;;;12.70;99.90;;;;;;5436578;26;20455;-52
2024/04/18 10:59:16;;;;;;;11.50;11.00;;;13.10;99.90;;;;;;5435633;26;20272;-44
2024/04/18 11:01:42;;;;;;;10.90;10.23;;;13.40;99.90;;;;;;5435184;26;20546;-42
2024/04/18 11:04:09;;;;;;;10.63;10.23;;;13.50;99.90;;;;;;5434477;26;20835;-44
2024/04/18 11:06:39;;;;;;;9.83;9.43;;;13.30;99.90;;;;;;5433383;26;21296;-44
2024/04/18 11:09:05;;;;;;;9.80;9.30;;;13.30;99.90;;;;;;5435406;26;20507;-43
2024/04/18 11:11:38;;;;;;;10.20;9.80;;;13.00;99.90;;;;;;5435815;26;20974;-45
2024/04/18 11:14:04;;;;;;;9.50;9.10;;;12.70;99.90;;;;;;5435193;26;20880;-47
2024/04/18 11:16:30;;;;;;;9.33;8.93;;;12.50;99.90;;;;;;5435422;26;20545;-50
2024/04/18 11:18:56;;;;;;;10.73;10.23;;;12.30;99.90;;;;;;5435103;26;20471;-43
2024/04/18 11:21:24;;;;;;;10.40;10.00;;;12.20;99.90;;;;;;5435471;26;21267;-46
2024/04/18 11:23:55;;;;;;;10.30;9.90;;;12.00;99.90;;;;;;5435214;26;20539;-47
2024/04/18 11:26:22;;;;;;;10.60;10.20;;;11.90;99.90;;;;;;5435308;26;20504;-40
2024/04/18 11:28:52;;;;;;;10.53;9.93;;;11.60;99.90;;;;;;5403761;26;20463;-42
2024/04/18 11:31:18;;;;;;;10.70;10.20;;;11.60;99.90;;;;;;5434729;26;20888;-42
2024/04/18 11:33:44;;;;;;;10.10;9.70;;;11.50;99.90;;;;;;5434839;26;20439;-49
2024/04/18 11:36:10;;;;;;;9.97;9.57;;;11.40;99.90;;;;;;5434127;26;20459;-54
2024/04/18 11:38:37;;;;;;;10.47;10.07;;;11.50;99.90;;;;;;5434659;26;20456;-49
2024/04/18 11:41:03;;;;;;;10.97;10.47;;;11.50;99.90;;;;;;5435576;26;20463;-42
2024/04/18 11:43:28;;;;;;;11.83;11.33;;;11.60;99.90;;;;;;5435133;26;20516;-48
2024/04/18 11:45:54;;;;;;;10.90;10.50;;;11.70;99.90;;;;;;5434408;26;20226;-47
2024/04/18 11:48:20;;;;;;;9.90;9.50;;;11.80;99.90;;;;;;5434983;26;20222;-46
2024/04/18 11:50:46;;;;;;;11.70;11.20;;;11.70;99.90;;;;;;5435156;26;20471;-48
2024/04/18 11:53:12;;;;;;;10.43;10.03;;;11.70;99.90;;;;;;5434761;26;20455;-44
2024/04/18 11:55:38;;;;;;;10.83;10.33;;;11.60;99.90;;;;;;5433910;26;20460;-56
2024/04/18 11:58:04;;;;;;;10.70;10.30;;;11.70;99.90;;;;;;5436058;26;20335;-50
2024/04/18 12:00:31;;;;;;;10.57;10.17;;;11.60;99.90;;;;;;5435222;26;20359;-45
2024/04/18 12:02:57;;;;;;;10.23;9.83;;;11.50;99.90;;;;;;5435328;26;20447;-46
2024/04/18 12:05:23;;;;;;;10.80;10.40;;;11.40;99.90;;;;;;5435729;26;20515;-49
2024/04/18 12:07:48;;;;;;;11.37;10.97;;;11.50;99.90;;;;;;5435114;26;20234;-44
2024/04/18 12:10:14;;;;;;;10.50;10.10;;;11.60;99.90;;;;;;5435398;26;20563;-49
2024/04/18 12:12:39;;;;;;;10.47;10.00;;;11.90;99.90;;;;;;5404156;26;20234;-46
2024/04/18 12:15:05;;;;;;;10.57;10.17;;;12.20;99.90;;;;;;5435809;26;20234;-47
2024/04/18 12:17:31;;;;;;;11.30;10.80;;;12.60;99.90;;;;;;5434889;26;20230;-47
2024/04/18 12:19:56;;;;;;;10.70;10.30;;;12.80;99.90;;;;;;5435188;26;20475;-50
2024/04/18 12:22:22;;;;;;;10.97;10.47;;;13.00;99.90;;;;;;5435131;26;20740;-47
2024/04/18 12:24:48;;;;;;;10.97;10.57;;;13.20;99.90;;;;;;5432589;26;20288;-49
2024/04/18 12:27:13;;;;;;;11.23;10.83;;;13.60;99.90;;;;;;5434150;26;20245;-43
2024/04/18 12:29:39;;;;;;;11.10;10.60;;;14.00;99.90;;;;;;5403640;26;20242;-50
2024/04/18 12:32:06;;;;;;;11.60;11.10;;;14.20;99.90;;;;;;5434470;26;20242;-40